sensor_id;sensor_type;location;lat;lon;timestamp;P1;durP1;ratioP1;P2;durP2;ratioP2
3726;SDS011;1879;45.876;12.300;2023-08-21T00:00:14;13.70;;;12.30;;
3726;SDS011;1879;45.876;12.300;2023-08-21T00:02:41;14.37;;;13.27;;
3726;SDS011;1879;45.876;12.300;2023-08-21T00:05:08;13.20;;;12.20;;
3726;SDS011;1879;45.876;12.300;2023-08-21T00:07:35;13.97;;;12.87;;
3726;SDS011;1879;45.876;12.300;2023-08-21T00:10:02;13.10;;;12.10;;
3726;SDS011;1879;45.876;12.300;2023-08-21T00:12:31;14.23;;;12.93;;
3726;SDS011;1879;45.876;12.300;2023-08-21T00:14:58;12.90;;;11.70;;
3726;SDS011;1879;45.876;12.300;2023-08-21T00:17:25;13.23;;;11.93;;
3726;SDS011;1879;45.876;12.300;2023-08-21T00:19:54;13.77;;;12.67;;
3726;SDS011;1879;45.876;12.300;2023-08-21T00:22:21;14.83;;;13.63;;
3726;SDS011;1879;45.876;12.300;2023-08-21T00:24:48;13.50;;;12.37;;
3726;SDS011;1879;45.876;12.300;2023-08-21T00:27:17;14.73;;;13.43;;
3726;SDS011;1879;45.876;12.300;2023-08-21T00:29:46;14.30;;;13.07;;
3726;SDS011;1879;45.876;12.300;2023-08-21T00:32:13;13.67;;;12.47;;
3726;SDS011;1879;45.876;12.300;2023-08-21T00:34:40;14.60;;;13.40;;
3726;SDS011;1879;45.876;12.300;2023-08-21T00:37:06;13.73;;;12.63;;
3726;SDS011;1879;45.876;12.300;2023-08-21T00:39:33;13.57;;;12.10;;
3726;SDS011;1879;45.876;12.300;2023-08-21T00:42:03;14.30;;;13.10;;
3726;SDS011;1879;45.876;12.300;2023-08-21T00:44:32;14.03;;;12.83;;
3726;SDS011;1879;45.876;12.300;2023-08-21T00:47:00;14.30;;;13.07;;
3726;SDS011;1879;45.876;12.300;2023-08-21T00:49:27;14.53;;;13.33;;
3726;SDS011;1879;45.876;12.300;2023-08-21T00:51:55;14.27;;;12.60;;
3726;SDS011;1879;45.876;12.300;2023-08-21T00:54:22;15.13;;;13.83;;
3726;SDS011;1879;45.876;12.300;2023-08-21T00:56:49;14.13;;;13.03;;
3726;SDS011;1879;45.876;12.300;2023-08-21T00:59:17;15.20;;;14.00;;
3726;SDS011;1879;45.876;12.300;2023-08-21T01:01:45;13.97;;;12.83;;
3726;SDS011;1879;45.876;12.300;2023-08-21T01:04:13;13.53;;;12.43;;
3726;SDS011;1879;45.876;12.300;2023-08-21T01:06:40;15.20;;;13.90;;
3726;SDS011;1879;45.876;12.300;2023-08-21T01:09:08;14.53;;;13.00;;
3726;SDS011;1879;45.876;12.300;2023-08-21T01:11:46;13.97;;;12.87;;
3726;SDS011;1879;45.876;12.300;2023-08-21T01:14:19;14.53;;;13.40;;
3726;SDS011;1879;45.876;12.300;2023-08-21T01:16:53;15.43;;;14.17;;
3726;SDS011;1879;45.876;12.300;2023-08-21T01:19:26;15.10;;;13.90;;
3726;SDS011;1879;45.876;12.300;2023-08-21T01:21:57;15.17;;;13.17;;
3726;SDS011;1879;45.876;12.300;2023-08-21T01:24:26;13.83;;;12.53;;
3726;SDS011;1879;45.876;12.300;2023-08-21T01:26:53;15.10;;;13.80;;
3726;SDS011;1879;45.876;12.300;2023-08-21T01:29:20;14.37;;;13.17;;
3726;SDS011;1879;45.876;12.300;2023-08-21T01:31:50;14.77;;;13.57;;
3726;SDS011;1879;45.876;12.300;2023-08-21T01:34:26;14.67;;;13.47;;
3726;SDS011;1879;45.876;12.300;2023-08-21T01:36:54;14.73;;;13.40;;
3726;SDS011;1879;45.876;12.300;2023-08-21T01:39:21;14.70;;;13.50;;
3726;SDS011;1879;45.876;12.300;2023-08-21T01:41:51;13.90;;;12.60;;
3726;SDS011;1879;45.876;12.300;2023-08-21T01:44:18;14.80;;;13.60;;
3726;SDS011;1879;45.876;12.300;2023-08-21T01:46:45;14.33;;;13.23;;
3726;SDS011;1879;45.876;12.300;2023-08-21T01:49:12;14.30;;;13.10;;
3726;SDS011;1879;45.876;12.300;2023-08-21T01:51:38;14.50;;;13.10;;
3726;SDS011;1879;45.876;12.300;2023-08-21T01:54:05;15.43;;;13.87;;
3726;SDS011;1879;45.876;12.300;2023-08-21T01:56:32;13.57;;;12.43;;
3726;SDS011;1879;45.876;12.300;2023-08-21T01:59:01;14.17;;;13.00;;
3726;SDS011;1879;45.876;12.300;2023-08-21T02:01:28;15.10;;;13.80;;
3726;SDS011;1879;45.876;12.300;2023-08-21T02:03:55;14.97;;;13.77;;
3726;SDS011;1879;45.876;12.300;2023-08-21T02:06:22;15.20;;;13.90;;
3726;SDS011;1879;45.876;12.300;2023-08-21T02:08:49;15.67;;;14.10;;
3726;SDS011;1879;45.876;12.300;2023-08-21T02:11:16;14.83;;;13.40;;
3726;SDS011;1879;45.876;12.300;2023-08-21T02:13:43;15.37;;;14.07;;
3726;SDS011;1879;45.876;12.300;2023-08-21T02:16:11;15.00;;;13.60;;
3726;SDS011;1879;45.876;12.300;2023-08-21T02:18:38;14.23;;;13.13;;
3726;SDS011;1879;45.876;12.300;2023-08-21T02:21:05;14.40;;;13.10;;
3726;SDS011;1879;45.876;12.300;2023-08-21T02:23:32;13.90;;;12.70;;
3726;SDS011;1879;45.876;12.300;2023-08-21T02:25:59;15.20;;;13.87;;
3726;SDS011;1879;45.876;12.300;2023-08-21T02:28:26;14.97;;;13.67;;
3726;SDS011;1879;45.876;12.300;2023-08-21T02:30:53;15.80;;;14.60;;
3726;SDS011;1879;45.876;12.300;2023-08-21T02:33:21;14.63;;;13.40;;
3726;SDS011;1879;45.876;12.300;2023-08-21T02:35:48;15.00;;;13.90;;
3726;SDS011;1879;45.876;12.300;2023-08-21T02:38:16;15.20;;;13.90;;
3726;SDS011;1879;45.876;12.300;2023-08-21T02:40:43;15.80;;;14.40;;
3726;SDS011;1879;45.876;12.300;2023-08-21T02:43:10;15.40;;;14.07;;
3726;SDS011;1879;45.876;12.300;2023-08-21T02:45:37;15.33;;;14.13;;
3726;SDS011;1879;45.876;12.300;2023-08-21T02:48:04;15.83;;;14.23;;
3726;SDS011;1879;45.876;12.300;2023-08-21T02:50:33;15.70;;;14.43;;
3726;SDS011;1879;45.876;12.300;2023-08-21T02:53:00;14.73;;;13.53;;
3726;SDS011;1879;45.876;12.300;2023-08-21T02:55:27;14.70;;;13.40;;
3726;SDS011;1879;45.876;12.300;2023-08-21T02:57:54;15.97;;;14.27;;
3726;SDS011;1879;45.876;12.300;2023-08-21T03:00:21;15.30;;;14.03;;
3726;SDS011;1879;45.876;12.300;2023-08-21T03:02:48;15.23;;;13.93;;
3726;SDS011;1879;45.876;12.300;2023-08-21T03:05:15;15.53;;;14.20;;
3726;SDS011;1879;45.876;12.300;2023-08-21T03:07:43;15.97;;;14.63;;
3726;SDS011;1879;45.876;12.300;2023-08-21T03:10:10;17.00;;;15.80;;
3726;SDS011;1879;45.876;12.300;2023-08-21T03:12:37;15.50;;;14.00;;
3726;SDS011;1879;45.876;12.300;2023-08-21T03:15:04;15.53;;;14.33;;
3726;SDS011;1879;45.876;12.300;2023-08-21T03:17:32;15.60;;;14.30;;
3726;SDS011;1879;45.876;12.300;2023-08-21T03:19:59;16.77;;;15.40;;
3726;SDS011;1879;45.876;12.300;2023-08-21T03:22:26;16.03;;;14.70;;
3726;SDS011;1879;45.876;12.300;2023-08-21T03:24:54;15.90;;;14.60;;
3726;SDS011;1879;45.876;12.300;2023-08-21T03:27:21;15.50;;;14.10;;
3726;SDS011;1879;45.876;12.300;2023-08-21T03:29:48;16.90;;;15.40;;
3726;SDS011;1879;45.876;12.300;2023-08-21T03:32:15;17.13;;;15.73;;
3726;SDS011;1879;45.876;12.300;2023-08-21T03:34:42;15.50;;;14.00;;
3726;SDS011;1879;45.876;12.300;2023-08-21T03:37:10;15.40;;;14.20;;
3726;SDS011;1879;45.876;12.300;2023-08-21T03:39:37;15.43;;;14.23;;
3726;SDS011;1879;45.876;12.300;2023-08-21T03:42:06;15.17;;;13.97;;
3726;SDS011;1879;45.876;12.300;2023-08-21T03:44:33;17.43;;;15.93;;
3726;SDS011;1879;45.876;12.300;2023-08-21T03:47:00;15.93;;;14.63;;
3726;SDS011;1879;45.876;12.300;2023-08-21T03:49:27;16.60;;;15.23;;
3726;SDS011;1879;45.876;12.300;2023-08-21T03:51:54;15.80;;;14.50;;
3726;SDS011;1879;45.876;12.300;2023-08-21T03:54:21;16.70;;;15.27;;
3726;SDS011;1879;45.876;12.300;2023-08-21T03:56:47;15.77;;;14.43;;
3726;SDS011;1879;45.876;12.300;2023-08-21T03:59:16;16.77;;;15.27;;
3726;SDS011;1879;45.876;12.300;2023-08-21T04:01:43;15.93;;;14.63;;
3726;SDS011;1879;45.876;12.300;2023-08-21T04:04:10;16.20;;;14.80;;
3726;SDS011;1879;45.876;12.300;2023-08-21T04:06:37;15.43;;;14.03;;
3726;SDS011;1879;45.876;12.300;2023-08-21T04:09:04;16.00;;;14.57;;
3726;SDS011;1879;45.876;12.300;2023-08-21T04:11:32;16.93;;;15.40;;
3726;SDS011;1879;45.876;12.300;2023-08-21T04:13:59;15.97;;;14.53;;
3726;SDS011;1879;45.876;12.300;2023-08-21T04:16:31;16.77;;;15.37;;
3726;SDS011;1879;45.876;12.300;2023-08-21T04:18:57;16.63;;;15.23;;
3726;SDS011;1879;45.876;12.300;2023-08-21T04:21:24;16.10;;;14.57;;
3726;SDS011;1879;45.876;12.300;2023-08-21T04:23:51;16.40;;;14.90;;
3726;SDS011;1879;45.876;12.300;2023-08-21T04:26:19;16.50;;;15.20;;
3726;SDS011;1879;45.876;12.300;2023-08-21T04:28:46;16.40;;;15.00;;
3726;SDS011;1879;45.876;12.300;2023-08-21T04:31:13;15.70;;;14.40;;
3726;SDS011;1879;45.876;12.300;2023-08-21T04:33:41;15.73;;;14.33;;
3726;SDS011;1879;45.876;12.300;2023-08-21T04:36:13;16.07;;;14.63;;
3726;SDS011;1879;45.876;12.300;2023-08-21T04:38:42;16.60;;;15.20;;
3726;SDS011;1879;45.876;12.300;2023-08-21T04:41:09;16.00;;;14.70;;
3726;SDS011;1879;45.876;12.300;2023-08-21T04:43:36;16.43;;;14.83;;
3726;SDS011;1879;45.876;12.300;2023-08-21T04:46:03;15.53;;;14.17;;
3726;SDS011;1879;45.876;12.300;2023-08-21T04:48:30;15.93;;;14.67;;
3726;SDS011;1879;45.876;12.300;2023-08-21T04:50:59;17.30;;;15.60;;
3726;SDS011;1879;45.876;12.300;2023-08-21T04:53:26;17.20;;;15.70;;
3726;SDS011;1879;45.876;12.300;2023-08-21T04:55:53;16.43;;;15.00;;
3726;SDS011;1879;45.876;12.300;2023-08-21T04:58:20;16.40;;;14.80;;
3726;SDS011;1879;45.876;12.300;2023-08-21T05:00:46;16.60;;;15.00;;
3726;SDS011;1879;45.876;12.300;2023-08-21T05:03:13;18.30;;;16.40;;
3726;SDS011;1879;45.876;12.300;2023-08-21T05:05:40;16.30;;;14.90;;
3726;SDS011;1879;45.876;12.300;2023-08-21T05:08:09;16.80;;;15.10;;
3726;SDS011;1879;45.876;12.300;2023-08-21T05:10:36;16.00;;;14.70;;
3726;SDS011;1879;45.876;12.300;2023-08-21T05:13:03;16.00;;;14.13;;
3726;SDS011;1879;45.876;12.300;2023-08-21T05:15:30;16.70;;;15.30;;
3726;SDS011;1879;45.876;12.300;2023-08-21T05:17:57;16.60;;;15.00;;
3726;SDS011;1879;45.876;12.300;2023-08-21T05:20:24;16.13;;;14.67;;
3726;SDS011;1879;45.876;12.300;2023-08-21T05:22:51;16.13;;;14.83;;
3726;SDS011;1879;45.876;12.300;2023-08-21T05:25:20;16.37;;;15.07;;
3726;SDS011;1879;45.876;12.300;2023-08-21T05:27:47;15.83;;;14.63;;
3726;SDS011;1879;45.876;12.300;2023-08-21T05:30:13;16.87;;;15.03;;
3726;SDS011;1879;45.876;12.300;2023-08-21T05:32:40;15.50;;;14.20;;
3726;SDS011;1879;45.876;12.300;2023-08-21T05:35:07;17.27;;;15.47;;
3726;SDS011;1879;45.876;12.300;2023-08-21T05:37:35;14.90;;;13.57;;
3726;SDS011;1879;45.876;12.300;2023-08-21T05:40:02;15.10;;;13.90;;
3726;SDS011;1879;45.876;12.300;2023-08-21T05:42:34;15.83;;;14.20;;
3726;SDS011;1879;45.876;12.300;2023-08-21T05:45:01;15.47;;;14.07;;
3726;SDS011;1879;45.876;12.300;2023-08-21T05:47:28;255.47;;;40.03;;
3726;SDS011;1879;45.876;12.300;2023-08-21T05:49:55;15.80;;;14.40;;
3726;SDS011;1879;45.876;12.300;2023-08-21T05:52:22;14.50;;;13.20;;
3726;SDS011;1879;45.876;12.300;2023-08-21T05:54:49;15.13;;;13.93;;
3726;SDS011;1879;45.876;12.300;2023-08-21T05:57:16;16.67;;;13.57;;
3726;SDS011;1879;45.876;12.300;2023-08-21T05:59:45;15.23;;;13.67;;
3726;SDS011;1879;45.876;12.300;2023-08-21T06:02:13;15.20;;;13.80;;
3726;SDS011;1879;45.876;12.300;2023-08-21T06:04:40;15.47;;;14.17;;
3726;SDS011;1879;45.876;12.300;2023-08-21T06:07:08;13.90;;;12.80;;
3726;SDS011;1879;45.876;12.300;2023-08-21T06:09:35;14.10;;;12.80;;
3726;SDS011;1879;45.876;12.300;2023-08-21T06:12:02;14.60;;;13.40;;
3726;SDS011;1879;45.876;12.300;2023-08-21T06:14:29;13.17;;;12.07;;
3726;SDS011;1879;45.876;12.300;2023-08-21T06:16:58;14.27;;;12.87;;
3726;SDS011;1879;45.876;12.300;2023-08-21T06:19:26;13.93;;;12.60;;
3726;SDS011;1879;45.876;12.300;2023-08-21T06:21:54;13.27;;;12.10;;
3726;SDS011;1879;45.876;12.300;2023-08-21T06:24:21;13.70;;;12.27;;
3726;SDS011;1879;45.876;12.300;2023-08-21T06:26:48;13.13;;;12.10;;
3726;SDS011;1879;45.876;12.300;2023-08-21T06:29:16;13.07;;;11.87;;
3726;SDS011;1879;45.876;12.300;2023-08-21T06:31:45;13.23;;;12.03;;
3726;SDS011;1879;45.876;12.300;2023-08-21T06:34:14;13.37;;;12.37;;
3726;SDS011;1879;45.876;12.300;2023-08-21T06:36:41;13.20;;;12.07;;
3726;SDS011;1879;45.876;12.300;2023-08-21T06:39:08;12.40;;;11.17;;
3726;SDS011;1879;45.876;12.300;2023-08-21T06:41:35;13.70;;;12.60;;
3726;SDS011;1879;45.876;12.300;2023-08-21T06:44:02;12.80;;;11.47;;
3726;SDS011;1879;45.876;12.300;2023-08-21T06:46:29;12.87;;;11.87;;
3726;SDS011;1879;45.876;12.300;2023-08-21T06:48:56;13.93;;;12.63;;
3726;SDS011;1879;45.876;12.300;2023-08-21T06:51:25;13.37;;;12.17;;
3726;SDS011;1879;45.876;12.300;2023-08-21T06:53:52;12.53;;;11.53;;
3726;SDS011;1879;45.876;12.300;2023-08-21T06:56:19;12.83;;;11.23;;
3726;SDS011;1879;45.876;12.300;2023-08-21T06:58:46;12.17;;;11.17;;
3726;SDS011;1879;45.876;12.300;2023-08-21T07:01:13;12.13;;;11.10;;
3726;SDS011;1879;45.876;12.300;2023-08-21T07:03:40;13.23;;;12.13;;
3726;SDS011;1879;45.876;12.300;2023-08-21T07:06:08;15.93;;;11.90;;
3726;SDS011;1879;45.876;12.300;2023-08-21T07:08:36;12.70;;;11.50;;
3726;SDS011;1879;45.876;12.300;2023-08-21T07:11:05;12.40;;;11.40;;
3726;SDS011;1879;45.876;12.300;2023-08-21T07:13:35;12.20;;;11.20;;
3726;SDS011;1879;45.876;12.300;2023-08-21T07:16:02;12.60;;;11.60;;
3726;SDS011;1879;45.876;12.300;2023-08-21T07:18:31;12.03;;;10.90;;
3726;SDS011;1879;45.876;12.300;2023-08-21T07:20:59;12.17;;;11.17;;
3726;SDS011;1879;45.876;12.300;2023-08-21T07:23:26;12.23;;;11.10;;
3726;SDS011;1879;45.876;12.300;2023-08-21T07:25:55;13.07;;;11.97;;
3726;SDS011;1879;45.876;12.300;2023-08-21T07:28:21;13.40;;;11.40;;
3726;SDS011;1879;45.876;12.300;2023-08-21T07:30:54;13.23;;;11.53;;
3726;SDS011;1879;45.876;12.300;2023-08-21T07:33:21;11.13;;;10.23;;
3726;SDS011;1879;45.876;12.300;2023-08-21T07:35:56;12.20;;;11.13;;
3726;SDS011;1879;45.876;12.300;2023-08-21T07:38:23;12.10;;;11.10;;
3726;SDS011;1879;45.876;12.300;2023-08-21T07:40:50;13.27;;;12.20;;
3726;SDS011;1879;45.876;12.300;2023-08-21T07:43:19;12.27;;;11.27;;
3726;SDS011;1879;45.876;12.300;2023-08-21T07:45:46;12.57;;;11.30;;
3726;SDS011;1879;45.876;12.300;2023-08-21T07:48:13;11.83;;;10.90;;
3726;SDS011;1879;45.876;12.300;2023-08-21T07:50:40;12.47;;;11.47;;
3726;SDS011;1879;45.876;12.300;2023-08-21T07:53:07;11.67;;;10.63;;
3726;SDS011;1879;45.876;12.300;2023-08-21T07:55:35;12.00;;;11.00;;
3726;SDS011;1879;45.876;12.300;2023-08-21T07:58:02;12.70;;;11.70;;
3726;SDS011;1879;45.876;12.300;2023-08-21T08:00:32;13.10;;;11.97;;
3726;SDS011;1879;45.876;12.300;2023-08-21T08:03:00;13.07;;;12.07;;
3726;SDS011;1879;45.876;12.300;2023-08-21T08:05:27;13.03;;;11.93;;
3726;SDS011;1879;45.876;12.300;2023-08-21T08:07:54;12.13;;;11.17;;
3726;SDS011;1879;45.876;12.300;2023-08-21T08:10:21;11.57;;;10.57;;
3726;SDS011;1879;45.876;12.300;2023-08-21T08:12:49;12.83;;;11.73;;
3726;SDS011;1879;45.876;12.300;2023-08-21T08:15:17;11.80;;;10.70;;
3726;SDS011;1879;45.876;12.300;2023-08-21T08:17:45;13.07;;;11.97;;
3726;SDS011;1879;45.876;12.300;2023-08-21T08:20:12;13.80;;;12.50;;
3726;SDS011;1879;45.876;12.300;2023-08-21T08:22:39;11.53;;;10.63;;
3726;SDS011;1879;45.876;12.300;2023-08-21T08:25:06;12.17;;;11.27;;
3726;SDS011;1879;45.876;12.300;2023-08-21T08:27:33;12.20;;;11.30;;
3726;SDS011;1879;45.876;12.300;2023-08-21T08:30:00;12.00;;;11.00;;
3726;SDS011;1879;45.876;12.300;2023-08-21T08:32:28;13.33;;;12.33;;
3726;SDS011;1879;45.876;12.300;2023-08-21T08:34:57;12.63;;;11.67;;
3726;SDS011;1879;45.876;12.300;2023-08-21T08:37:24;13.17;;;12.17;;
3726;SDS011;1879;45.876;12.300;2023-08-21T08:39:51;11.67;;;10.80;;
3726;SDS011;1879;45.876;12.300;2023-08-21T08:42:18;12.30;;;11.30;;
3726;SDS011;1879;45.876;12.300;2023-08-21T08:44:45;11.70;;;10.70;;
3726;SDS011;1879;45.876;12.300;2023-08-21T08:47:13;12.60;;;11.77;;
3726;SDS011;1879;45.876;12.300;2023-08-21T08:49:41;12.20;;;11.10;;
3726;SDS011;1879;45.876;12.300;2023-08-21T08:52:10;12.07;;;11.00;;
3726;SDS011;1879;45.876;12.300;2023-08-21T08:54:38;10.97;;;10.03;;
3726;SDS011;1879;45.876;12.300;2023-08-21T08:57:05;12.40;;;11.30;;
3726;SDS011;1879;45.876;12.300;2023-08-21T08:59:32;12.57;;;11.50;;
3726;SDS011;1879;45.876;12.300;2023-08-21T09:01:59;13.30;;;12.00;;
3726;SDS011;1879;45.876;12.300;2023-08-21T09:04:26;12.30;;;11.40;;
3726;SDS011;1879;45.876;12.300;2023-08-21T09:07:05;12.20;;;11.30;;
3726;SDS011;1879;45.876;12.300;2023-08-21T09:09:38;11.77;;;10.67;;
3726;SDS011;1879;45.876;12.300;2023-08-21T09:12:08;10.77;;;9.90;;
3726;SDS011;1879;45.876;12.300;2023-08-21T09:14:37;10.63;;;9.83;;
3726;SDS011;1879;45.876;12.300;2023-08-21T09:17:04;11.07;;;10.27;;
3726;SDS011;1879;45.876;12.300;2023-08-21T09:19:31;10.40;;;9.57;;
3726;SDS011;1879;45.876;12.300;2023-08-21T09:21:59;10.80;;;9.80;;
3726;SDS011;1879;45.876;12.300;2023-08-21T09:24:33;10.73;;;9.93;;
3726;SDS011;1879;45.876;12.300;2023-08-21T09:27:02;10.27;;;9.50;;
3726;SDS011;1879;45.876;12.300;2023-08-21T09:29:33;11.10;;;10.20;;
3726;SDS011;1879;45.876;12.300;2023-08-21T09:32:04;10.93;;;10.03;;
3726;SDS011;1879;45.876;12.300;2023-08-21T09:34:33;13.60;;;10.47;;
3726;SDS011;1879;45.876;12.300;2023-08-21T09:37:01;10.33;;;9.63;;
3726;SDS011;1879;45.876;12.300;2023-08-21T09:39:32;11.80;;;10.80;;
3726;SDS011;1879;45.876;12.300;2023-08-21T09:42:01;13.97;;;12.87;;
3726;SDS011;1879;45.876;12.300;2023-08-21T09:44:34;9.97;;;9.17;;
3726;SDS011;1879;45.876;12.300;2023-08-21T09:47:02;10.43;;;9.57;;
3726;SDS011;1879;45.876;12.300;2023-08-21T09:49:30;9.83;;;9.23;;
3726;SDS011;1879;45.876;12.300;2023-08-21T09:51:58;11.33;;;10.43;;
3726;SDS011;1879;45.876;12.300;2023-08-21T09:54:26;10.80;;;10.00;;
3726;SDS011;1879;45.876;12.300;2023-08-21T09:56:54;10.90;;;10.00;;
3726;SDS011;1879;45.876;12.300;2023-08-21T09:59:23;10.67;;;9.87;;
3726;SDS011;1879;45.876;12.300;2023-08-21T10:01:51;9.80;;;9.10;;
3726;SDS011;1879;45.876;12.300;2023-08-21T10:04:18;10.07;;;9.27;;
3726;SDS011;1879;45.876;12.300;2023-08-21T10:06:49;10.77;;;9.97;;
3726;SDS011;1879;45.876;12.300;2023-08-21T10:09:20;10.07;;;9.27;;
3726;SDS011;1879;45.876;12.300;2023-08-21T10:11:49;9.63;;;8.83;;
3726;SDS011;1879;45.876;12.300;2023-08-21T10:14:18;10.20;;;9.40;;
3726;SDS011;1879;45.876;12.300;2023-08-21T10:16:48;10.20;;;9.40;;
3726;SDS011;1879;45.876;12.300;2023-08-21T10:19:16;10.70;;;9.80;;
3726;SDS011;1879;45.876;12.300;2023-08-21T10:21:45;11.43;;;10.30;;
3726;SDS011;1879;45.876;12.300;2023-08-21T10:24:25;11.70;;;10.70;;
3726;SDS011;1879;45.876;12.300;2023-08-21T10:26:57;12.57;;;11.37;;
3726;SDS011;1879;45.876;12.300;2023-08-21T10:29:24;10.03;;;9.33;;
3726;SDS011;1879;45.876;12.300;2023-08-21T10:31:59;10.67;;;9.97;;
3726;SDS011;1879;45.876;12.300;2023-08-21T10:34:31;11.23;;;10.33;;
3726;SDS011;1879;45.876;12.300;2023-08-21T10:37:03;11.50;;;10.30;;
3726;SDS011;1879;45.876;12.300;2023-08-21T10:39:32;11.00;;;10.10;;
3726;SDS011;1879;45.876;12.300;2023-08-21T10:42:03;12.00;;;11.00;;
3726;SDS011;1879;45.876;12.300;2023-08-21T10:44:34;10.53;;;9.73;;
3726;SDS011;1879;45.876;12.300;2023-08-21T10:47:19;11.30;;;10.27;;
3726;SDS011;1879;45.876;12.300;2023-08-21T10:49:48;10.90;;;10.10;;
3726;SDS011;1879;45.876;12.300;2023-08-21T10:52:19;10.23;;;9.43;;
3726;SDS011;1879;45.876;12.300;2023-08-21T10:54:48;11.53;;;10.40;;
3726;SDS011;1879;45.876;12.300;2023-08-21T10:57:17;10.93;;;9.93;;
3726;SDS011;1879;45.876;12.300;2023-08-21T10:59:51;11.70;;;10.53;;
3726;SDS011;1879;45.876;12.300;2023-08-21T11:02:20;11.33;;;10.43;;
3726;SDS011;1879;45.876;12.300;2023-08-21T11:04:48;11.00;;;10.10;;
3726;SDS011;1879;45.876;12.300;2023-08-21T11:07:15;11.30;;;10.40;;
3726;SDS011;1879;45.876;12.300;2023-08-21T11:09:43;11.90;;;10.80;;
3726;SDS011;1879;45.876;12.300;2023-08-21T11:12:11;11.43;;;10.33;;
3726;SDS011;1879;45.876;12.300;2023-08-21T11:14:39;11.83;;;10.63;;
3726;SDS011;1879;45.876;12.300;2023-08-21T11:17:07;10.97;;;10.07;;
3726;SDS011;1879;45.876;12.300;2023-08-21T11:19:37;10.83;;;10.00;;
3726;SDS011;1879;45.876;12.300;2023-08-21T11:22:04;11.90;;;9.97;;
3726;SDS011;1879;45.876;12.300;2023-08-21T11:24:41;10.30;;;9.50;;
3726;SDS011;1879;45.876;12.300;2023-08-21T11:27:10;10.20;;;9.40;;
3726;SDS011;1879;45.876;12.300;2023-08-21T11:29:38;11.50;;;10.40;;
3726;SDS011;1879;45.876;12.300;2023-08-21T11:32:09;11.80;;;10.90;;
3726;SDS011;1879;45.876;12.300;2023-08-21T11:34:40;10.33;;;9.63;;
3726;SDS011;1879;45.876;12.300;2023-08-21T11:37:07;11.20;;;10.30;;
3726;SDS011;1879;45.876;12.300;2023-08-21T11:39:38;10.13;;;9.33;;
3726;SDS011;1879;45.876;12.300;2023-08-21T11:42:08;10.33;;;9.53;;
3726;SDS011;1879;45.876;12.300;2023-08-21T11:44:44;10.67;;;9.70;;
3726;SDS011;1879;45.876;12.300;2023-08-21T11:47:15;9.80;;;9.00;;
3726;SDS011;1879;45.876;12.300;2023-08-21T11:49:45;9.27;;;8.57;;
3726;SDS011;1879;45.876;12.300;2023-08-21T11:52:17;10.47;;;9.67;;
3726;SDS011;1879;45.876;12.300;2023-08-21T11:54:47;10.63;;;9.53;;
3726;SDS011;1879;45.876;12.300;2023-08-21T11:57:15;9.53;;;8.83;;
3726;SDS011;1879;45.876;12.300;2023-08-21T11:59:42;9.50;;;8.80;;
3726;SDS011;1879;45.876;12.300;2023-08-21T12:02:09;9.67;;;8.97;;
3726;SDS011;1879;45.876;12.300;2023-08-21T12:04:39;9.47;;;8.77;;
3726;SDS011;1879;45.876;12.300;2023-08-21T12:07:08;9.50;;;8.20;;
3726;SDS011;1879;45.876;12.300;2023-08-21T12:09:35;9.77;;;8.87;;
3726;SDS011;1879;45.876;12.300;2023-08-21T12:12:02;9.87;;;9.10;;
3726;SDS011;1879;45.876;12.300;2023-08-21T12:14:30;9.10;;;8.50;;
3726;SDS011;1879;45.876;12.300;2023-08-21T12:16:57;9.77;;;9.10;;
3726;SDS011;1879;45.876;12.300;2023-08-21T12:19:25;9.50;;;8.80;;
3726;SDS011;1879;45.876;12.300;2023-08-21T12:21:52;10.13;;;9.37;;
3726;SDS011;1879;45.876;12.300;2023-08-21T12:24:20;9.23;;;8.60;;
3726;SDS011;1879;45.876;12.300;2023-08-21T12:26:50;9.33;;;8.50;;
3726;SDS011;1879;45.876;12.300;2023-08-21T12:29:17;9.90;;;9.20;;
3726;SDS011;1879;45.876;12.300;2023-08-21T12:31:44;9.60;;;8.87;;
3726;SDS011;1879;45.876;12.300;2023-08-21T12:34:12;9.17;;;8.50;;
3726;SDS011;1879;45.876;12.300;2023-08-21T12:36:39;9.60;;;8.70;;
3726;SDS011;1879;45.876;12.300;2023-08-21T12:39:06;10.07;;;9.20;;
3726;SDS011;1879;45.876;12.300;2023-08-21T12:41:35;10.80;;;9.80;;
3726;SDS011;1879;45.876;12.300;2023-08-21T12:44:02;10.00;;;9.23;;
3726;SDS011;1879;45.876;12.300;2023-08-21T12:46:29;9.87;;;9.07;;
3726;SDS011;1879;45.876;12.300;2023-08-21T12:48:56;9.73;;;9.03;;
3726;SDS011;1879;45.876;12.300;2023-08-21T12:51:24;10.00;;;9.20;;
3726;SDS011;1879;45.876;12.300;2023-08-21T12:53:51;10.70;;;9.80;;
3726;SDS011;1879;45.876;12.300;2023-08-21T12:56:18;10.20;;;9.50;;
3726;SDS011;1879;45.876;12.300;2023-08-21T12:58:47;9.77;;;8.97;;
3726;SDS011;1879;45.876;12.300;2023-08-21T13:01:14;9.77;;;9.10;;
3726;SDS011;1879;45.876;12.300;2023-08-21T13:03:43;9.17;;;8.57;;
3726;SDS011;1879;45.876;12.300;2023-08-21T13:06:11;11.23;;;10.27;;
3726;SDS011;1879;45.876;12.300;2023-08-21T13:08:38;9.83;;;9.07;;
3726;SDS011;1879;45.876;12.300;2023-08-21T13:11:05;9.20;;;8.47;;
3726;SDS011;1879;45.876;12.300;2023-08-21T13:13:32;9.63;;;8.93;;
3726;SDS011;1879;45.876;12.300;2023-08-21T13:16:01;9.37;;;8.67;;
3726;SDS011;1879;45.876;12.300;2023-08-21T13:18:28;9.60;;;8.80;;
3726;SDS011;1879;45.876;12.300;2023-08-21T13:20:55;9.07;;;8.40;;
3726;SDS011;1879;45.876;12.300;2023-08-21T13:23:22;9.60;;;8.90;;
3726;SDS011;1879;45.876;12.300;2023-08-21T13:25:49;9.57;;;8.87;;
3726;SDS011;1879;45.876;12.300;2023-08-21T13:28:16;11.03;;;9.87;;
3726;SDS011;1879;45.876;12.300;2023-08-21T13:30:43;10.50;;;8.93;;
3726;SDS011;1879;45.876;12.300;2023-08-21T13:33:13;8.90;;;8.30;;
3726;SDS011;1879;45.876;12.300;2023-08-21T13:35:42;10.10;;;9.30;;
3726;SDS011;1879;45.876;12.300;2023-08-21T13:38:10;10.30;;;9.50;;
3726;SDS011;1879;45.876;12.300;2023-08-21T13:40:37;9.50;;;8.57;;
3726;SDS011;1879;45.876;12.300;2023-08-21T13:43:04;9.47;;;8.87;;
3726;SDS011;1879;45.876;12.300;2023-08-21T13:45:32;9.20;;;8.40;;
3726;SDS011;1879;45.876;12.300;2023-08-21T13:47:59;9.83;;;8.97;;
3726;SDS011;1879;45.876;12.300;2023-08-21T13:50:27;8.77;;;8.07;;
3726;SDS011;1879;45.876;12.300;2023-08-21T13:52:54;9.77;;;9.00;;
3726;SDS011;1879;45.876;12.300;2023-08-21T13:55:21;9.30;;;8.50;;
3726;SDS011;1879;45.876;12.300;2023-08-21T13:57:49;11.07;;;10.03;;
3726;SDS011;1879;45.876;12.300;2023-08-21T14:00:16;9.47;;;8.67;;
3726;SDS011;1879;45.876;12.300;2023-08-21T14:02:43;9.50;;;8.63;;
3726;SDS011;1879;45.876;12.300;2023-08-21T14:05:10;9.00;;;8.20;;
3726;SDS011;1879;45.876;12.300;2023-08-21T14:07:41;8.63;;;8.03;;
3726;SDS011;1879;45.876;12.300;2023-08-21T14:10:08;9.20;;;8.40;;
3726;SDS011;1879;45.876;12.300;2023-08-21T14:12:36;10.13;;;9.13;;
3726;SDS011;1879;45.876;12.300;2023-08-21T14:15:04;11.00;;;9.90;;
3726;SDS011;1879;45.876;12.300;2023-08-21T14:17:32;9.93;;;9.23;;
3726;SDS011;1879;45.876;12.300;2023-08-21T14:19:58;9.80;;;9.10;;
3726;SDS011;1879;45.876;12.300;2023-08-21T14:22:25;9.53;;;8.73;;
3726;SDS011;1879;45.876;12.300;2023-08-21T14:24:54;11.53;;;8.77;;
3726;SDS011;1879;45.876;12.300;2023-08-21T14:27:21;9.90;;;9.10;;
3726;SDS011;1879;45.876;12.300;2023-08-21T14:29:48;9.23;;;8.40;;
3726;SDS011;1879;45.876;12.300;2023-08-21T14:32:15;10.10;;;9.20;;
3726;SDS011;1879;45.876;12.300;2023-08-21T14:34:42;9.93;;;9.23;;
3726;SDS011;1879;45.876;12.300;2023-08-21T14:37:10;9.23;;;8.63;;
3726;SDS011;1879;45.876;12.300;2023-08-21T14:39:40;9.40;;;8.60;;
3726;SDS011;1879;45.876;12.300;2023-08-21T14:42:09;9.43;;;8.60;;
3726;SDS011;1879;45.876;12.300;2023-08-21T14:44:36;10.00;;;9.30;;